CheckWX is a tool to help pilots better visualize weather data.  It is not intended as a substitute for an official pre-flight weather briefing.

19:00:48 UTC

KPNS TAF
Pensacola International Airport
Pensacola, Florida, USA
KPNS 191722Z 1918/2018 26012KT P6SM VCSH SCT030 SCT040 FM192100 22015G22KT P6SM VCTS BKN030CB BKN250 FM200200 22012KT P6SM FEW050 BKN250 FM201300 23015G21KT P6SM BKN050 BKN250

Jun-19@
18:00 UTC

Jun-19 @ 18:00 UTC

Jun-19@
21:00 UTC

Jun-19 @ 21:00 UTC

KPNS 191722Z 1918/2018 26012KT P6SM VCSH SCT030 SCT040
Wind
  • 260° at 12 KTS
Cloud Levels
  • Scattered at 3,000' AGL
  • Scattered at 4,000' AGL

Jun-19@
21:00 UTC

Jun-19 @ 21:00 UTC

Jun-20@
02:00 UTC

Jun-20 @ 02:00 UTC

FM192100 22015G22KT P6SM VCTS BKN030CB BKN250

From

From Standard forecast or significant change

Wind
  • 220° at 15 KTS
  • {Gusting to 22 KTS
Conditions
Area Thunderstorm
Cloud Levels
  • Broken at 3,000' AGL
  • Broken at 25,000' AGL

Jun-20@
02:00 UTC

Jun-20 @ 02:00 UTC

Jun-20@
13:00 UTC

Jun-20 @ 13:00 UTC

FM200200 22012KT P6SM FEW050 BKN250

From

From Standard forecast or significant change

Wind
  • 220° at 12 KTS
Cloud Levels
  • Few at 5,000' AGL
  • Broken at 25,000' AGL

Jun-20@
13:00 UTC

Jun-20 @ 13:00 UTC

Jun-20@
18:00 UTC

Jun-20 @ 18:00 UTC

FM201300 23015G21KT P6SM BKN050 BKN250

From

From Standard forecast or significant change

Wind
  • 230° at 15 KTS
  • {Gusting to 21 KTS
Cloud Levels
  • Broken at 5,000' AGL
  • Broken at 25,000' AGL